createdAt,value
2023-04-16T00:00:57.766Z,91.60
2023-04-16T00:03:25.844Z,91.80
2023-04-16T00:05:55.770Z,91.70
2023-04-16T00:08:25.513Z,91.50
2023-04-16T00:10:55.625Z,91.60
2023-04-16T00:13:23.757Z,91.50
2023-04-16T00:15:51.737Z,91.50
2023-04-16T00:18:21.142Z,91.40
2023-04-16T00:20:49.431Z,91.40
2023-04-16T00:23:17.382Z,91.40
2023-04-16T00:25:45.274Z,91.30
2023-04-16T00:28:14.609Z,91.30
2023-04-16T00:30:42.501Z,91.20
2023-04-16T00:33:10.441Z,91.30
2023-04-16T00:35:38.368Z,91.40
2023-04-16T00:38:06.312Z,91.50
2023-04-16T00:40:34.199Z,91.40
2023-04-16T00:43:02.090Z,91.40
2023-04-16T00:45:31.631Z,91.40
2023-04-16T00:48:00.671Z,91.40
2023-04-16T00:50:29.116Z,91.50
2023-04-16T00:52:58.153Z,91.60
2023-04-16T00:55:26.308Z,91.40
2023-04-16T00:57:54.159Z,91.30
2023-04-16T01:00:22.462Z,91.30
2023-04-16T01:02:51.932Z,91.20
2023-04-16T01:05:20.471Z,91.20
2023-04-16T01:07:48.405Z,91.30
2023-04-16T01:10:16.322Z,91.40
2023-04-16T01:12:44.204Z,91.40
2023-04-16T01:15:12.763Z,91.40
2023-04-16T01:17:40.701Z,91.40
2023-04-16T01:20:10.773Z,91.40
2023-04-16T01:22:40.184Z,91.20
2023-04-16T01:25:08.408Z,91.30
2023-04-16T01:27:37.623Z,91.20
2023-04-16T01:30:07.094Z,91.10
2023-04-16T01:32:35.088Z,91.30
2023-04-16T01:35:03.290Z,91.20
2023-04-16T01:37:32.069Z,91.20
2023-04-16T01:40:01.440Z,91.30
2023-04-16T01:42:29.314Z,91.30
2023-04-16T01:44:57.220Z,91.20
2023-04-16T01:47:25.174Z,91.10
2023-04-16T01:49:53.200Z,91.10
2023-04-16T01:52:21.146Z,91.10
2023-04-16T01:54:49.093Z,91.30
2023-04-16T01:57:18.457Z,91.30
2023-04-16T01:59:46.371Z,91.10
2023-04-16T02:02:16.675Z,91.20
2023-04-16T02:04:46.122Z,91.10
2023-04-16T02:07:14.266Z,91.00
2023-04-16T02:09:42.569Z,91.20
2023-04-16T02:12:11.690Z,91.10
2023-04-16T02:14:41.253Z,91.10
2023-04-16T02:17:09.202Z,91.10
2023-04-16T02:19:37.137Z,91.10
2023-04-16T02:22:05.455Z,90.90
2023-04-16T02:24:33.306Z,90.80
2023-04-16T02:27:01.411Z,90.80
2023-04-16T02:29:29.303Z,90.90
2023-04-16T02:31:59.578Z,90.80
2023-04-16T02:34:27.603Z,90.80
2023-04-16T02:36:55.582Z,90.80
2023-04-16T02:39:23.454Z,90.60
2023-04-16T02:41:51.402Z,90.80
2023-04-16T02:44:19.498Z,90.60
2023-04-16T02:46:47.478Z,90.70
2023-04-16T02:49:16.869Z,90.50
2023-04-16T02:51:44.807Z,90.60
2023-04-16T02:54:12.698Z,90.60
2023-04-16T02:56:40.627Z,90.60
2023-04-16T02:59:08.777Z,90.50
2023-04-16T03:01:36.916Z,90.60
2023-04-16T03:04:04.933Z,90.40
2023-04-16T03:06:34.356Z,90.40
2023-04-16T03:09:02.344Z,90.40
2023-04-16T03:11:30.381Z,90.20
2023-04-16T03:13:58.327Z,89.90
2023-04-16T03:16:26.294Z,90.10
2023-04-16T03:18:54.186Z,90.10
2023-04-16T03:21:22.108Z,90.30
2023-04-16T03:23:53.245Z,90.20
2023-04-16T03:26:21.677Z,90.10
2023-04-16T03:28:49.632Z,90.00
2023-04-16T03:31:17.533Z,89.80
2023-04-16T03:33:45.788Z,90.10
2023-04-16T03:36:13.683Z,90.00
2023-04-16T03:38:41.866Z,89.50
2023-04-16T03:41:11.327Z,90.00
2023-04-16T03:43:39.287Z,89.70
2023-04-16T03:46:07.313Z,89.90
2023-04-16T03:48:35.284Z,89.40
2023-04-16T03:51:03.162Z,89.20
2023-04-16T03:53:31.173Z,89.50
2023-04-16T03:55:59.229Z,89.40
2023-04-16T03:58:28.586Z,89.30
2023-04-16T04:00:56.455Z,89.00
2023-04-16T04:03:26.138Z,88.70
2023-04-16T04:05:54.292Z,89.00
2023-04-16T04:08:22.248Z,88.90
2023-04-16T04:10:51.152Z,89.20
2023-04-16T04:13:19.057Z,89.00
2023-04-16T04:15:48.403Z,88.90
2023-04-16T04:18:16.336Z,88.50
2023-04-16T04:20:45.414Z,88.90
2023-04-16T04:23:13.326Z,88.70
2023-04-16T04:25:41.234Z,88.60
2023-04-16T04:28:09.175Z,88.70
2023-04-16T04:30:37.128Z,88.60
2023-04-16T04:33:06.588Z,88.70
2023-04-16T04:35:34.697Z,88.70
2023-04-16T04:38:02.880Z,88.90
2023-04-16T04:40:30.875Z,88.80
2023-04-16T04:42:58.918Z,88.80
2023-04-16T04:45:27.062Z,88.90
2023-04-16T04:47:55.676Z,89.00
2023-04-16T04:50:25.052Z,88.90
2023-04-16T04:52:52.977Z,88.90
2023-04-16T04:55:20.979Z,88.70
2023-04-16T04:57:50.414Z,88.50
2023-04-16T05:00:18.367Z,88.60
2023-04-16T05:02:47.351Z,88.60
2023-04-16T05:05:15.446Z,88.40
2023-04-16T05:07:45.367Z,88.30
2023-04-16T05:10:13.281Z,88.40
2023-04-16T05:12:41.352Z,88.30
2023-04-16T05:15:10.444Z,88.40
2023-04-16T05:17:38.379Z,88.40
2023-04-16T05:20:07.354Z,88.20
2023-04-16T05:22:35.303Z,88.40
2023-04-16T05:25:04.998Z,88.00
2023-04-16T05:27:32.920Z,88.30
2023-04-16T05:30:00.850Z,88.10
2023-04-16T05:32:28.728Z,87.60
2023-04-16T05:34:56.709Z,87.90
2023-04-16T05:37:24.736Z,87.80
2023-04-16T05:39:52.673Z,87.70
2023-04-16T05:42:21.978Z,87.60
2023-04-16T05:44:49.936Z,87.60
2023-04-16T05:47:17.936Z,87.80
2023-04-16T05:49:45.791Z,87.90
2023-04-16T05:52:13.808Z,87.80
2023-04-16T05:54:41.742Z,87.70
2023-04-16T05:57:09.607Z,87.50
2023-04-16T05:59:38.917Z,87.10
2023-04-16T06:02:07.742Z,87.30
2023-04-16T06:04:37.220Z,87.20
2023-04-16T06:07:05.466Z,86.70
2023-04-16T06:09:33.393Z,86.60
2023-04-16T06:12:01.449Z,86.30
2023-04-16T06:14:29.404Z,86.00
2023-04-16T06:16:58.736Z,86.50
2023-04-16T06:19:26.638Z,86.40
2023-04-16T06:21:55.078Z,86.10
2023-04-16T06:24:23.013Z,85.70
2023-04-16T06:26:50.903Z,85.80
2023-04-16T06:29:19.097Z,86.00
2023-04-16T06:31:47.891Z,85.70
2023-04-16T06:34:17.509Z,85.40
2023-04-16T06:36:45.717Z,85.20
2023-04-16T06:39:13.740Z,85.40
2023-04-16T06:41:41.758Z,85.20
2023-04-16T06:44:09.767Z,84.90
2023-04-16T06:46:37.773Z,84.70
2023-04-16T06:49:05.891Z,84.50
2023-04-16T06:51:35.725Z,84.80
2023-04-16T06:54:03.671Z,84.50
2023-04-16T06:56:32.200Z,85.00
2023-04-16T06:59:00.950Z,84.60
2023-04-16T07:01:31.109Z,85.00
2023-04-16T07:03:59.453Z,84.80
2023-04-16T07:06:28.119Z,84.70
2023-04-16T07:08:57.533Z,84.70
2023-04-16T07:11:27.292Z,84.00
2023-04-16T07:13:55.765Z,83.80
2023-04-16T07:16:24.044Z,83.70
2023-04-16T07:18:52.222Z,82.80
2023-04-16T07:21:20.991Z,83.40
2023-04-16T07:23:48.993Z,82.60
2023-04-16T07:26:18.416Z,82.20
2023-04-16T07:28:46.397Z,82.40
2023-04-16T07:31:14.374Z,81.60
2023-04-16T07:33:42.557Z,80.50
2023-04-16T07:36:10.983Z,80.80
2023-04-16T07:38:39.006Z,80.80
2023-04-16T07:41:07.123Z,80.00
2023-04-16T07:43:36.748Z,81.10
2023-04-16T07:46:04.797Z,80.50
2023-04-16T07:48:32.864Z,78.80
2023-04-16T07:51:01.047Z,79.80
2023-04-16T07:53:29.021Z,78.80
2023-04-16T07:55:57.004Z,79.30
2023-04-16T07:58:24.914Z,79.30
2023-04-16T08:00:54.242Z,79.60
2023-04-16T08:03:22.389Z,78.80
2023-04-16T08:05:50.677Z,79.20
2023-04-16T08:08:18.646Z,78.90
2023-04-16T08:10:46.729Z,78.80
2023-04-16T08:13:14.642Z,77.90
2023-04-16T08:15:42.554Z,77.50
2023-04-16T08:18:15.517Z,77.40
2023-04-16T08:20:43.634Z,76.20
2023-04-16T08:23:11.528Z,77.10
2023-04-16T08:25:39.431Z,77.20
2023-04-16T08:28:07.322Z,76.80
2023-04-16T08:30:35.486Z,76.10
2023-04-16T08:33:03.589Z,76.70
2023-04-16T08:35:32.958Z,76.80
2023-04-16T08:38:02.381Z,76.70
2023-04-16T08:40:31.736Z,78.00
2023-04-16T08:43:01.353Z,77.70
2023-04-16T08:45:29.301Z,78.00
2023-04-16T08:47:57.700Z,77.80
2023-04-16T08:50:28.225Z,77.80
2023-04-16T08:53:01.272Z,76.50
2023-04-16T08:55:37.372Z,75.80
2023-04-16T08:58:09.652Z,74.70
2023-04-16T09:00:40.947Z,74.30
2023-04-16T09:03:10.429Z,74.30
2023-04-16T09:05:39.531Z,70.30
2023-04-16T09:08:09.295Z,72.30
2023-04-16T09:10:37.271Z,71.60
2023-04-16T09:13:05.263Z,68.90
2023-04-16T09:15:35.242Z,69.50
2023-04-16T09:18:03.336Z,68.90
2023-04-16T09:20:31.377Z,67.90
2023-04-16T09:22:59.317Z,68.90
2023-04-16T09:25:29.266Z,67.20
2023-04-16T09:27:57.153Z,68.00
2023-04-16T09:30:27.128Z,66.70
2023-04-16T09:33:15.608Z,66.90
2023-04-16T09:35:47.989Z,65.70
2023-04-16T09:38:16.373Z,66.90
2023-04-16T09:40:47.414Z,65.60
2023-04-16T09:43:17.337Z,66.10
2023-04-16T09:45:52.058Z,65.10
2023-04-16T09:48:30.287Z,64.90
2023-04-16T09:50:58.554Z,63.70
2023-04-16T09:53:27.122Z,63.00
2023-04-16T09:55:57.707Z,62.70
2023-04-16T09:58:25.780Z,64.20
2023-04-16T10:00:58.288Z,63.50
2023-04-16T10:03:32.979Z,64.40
2023-04-16T10:06:02.979Z,64.30
2023-04-16T10:17:00.562Z,61.70
2023-04-16T10:19:28.760Z,61.20
2023-04-16T10:21:56.772Z,62.50
2023-04-16T10:24:25.612Z,61.50
2023-04-16T10:26:54.038Z,61.10
2023-04-16T10:29:22.700Z,61.40
2023-04-16T10:31:52.045Z,61.10
2023-04-16T10:34:21.857Z,60.90
2023-04-16T10:36:51.156Z,60.80
2023-04-16T10:39:21.096Z,60.40
2023-04-16T10:41:49.216Z,58.70
2023-04-16T10:44:19.303Z,59.50
2023-04-16T10:46:49.689Z,59.40
2023-04-16T10:49:19.890Z,59.00
2023-04-16T10:51:56.251Z,59.90
2023-04-16T10:54:28.943Z,59.30
2023-04-16T10:56:58.865Z,58.80
2023-04-16T10:59:31.855Z,60.80
2023-04-16T11:02:01.775Z,59.60
2023-04-16T11:04:39.621Z,60.50
2023-04-16T11:07:16.991Z,60.00
2023-04-16T11:09:56.544Z,59.90
2023-04-16T11:12:27.456Z,58.70
2023-04-16T11:14:59.750Z,59.80
2023-04-16T11:17:30.477Z,57.90
2023-04-16T11:19:58.381Z,57.70
2023-04-16T11:22:28.844Z,60.00
2023-04-16T11:24:57.593Z,59.40
2023-04-16T11:27:26.329Z,59.60
2023-04-16T11:30:04.120Z,60.10
2023-04-16T11:32:33.579Z,61.20
2023-04-16T11:35:04.414Z,60.50
2023-04-16T11:37:37.637Z,62.60
2023-04-16T11:40:08.109Z,60.80
2023-04-16T11:42:37.821Z,61.70
2023-04-16T11:45:06.474Z,61.80
2023-04-16T11:47:43.683Z,61.50
2023-04-16T11:50:22.770Z,60.90
2023-04-16T12:22:27.171Z,60.20
2023-04-16T12:24:57.967Z,60.80
2023-04-16T12:27:28.541Z,61.50
2023-04-16T12:30:07.186Z,61.10
2023-04-16T12:32:35.149Z,62.00
2023-04-16T12:35:02.995Z,61.00
2023-04-16T12:37:32.525Z,61.80
2023-04-16T12:40:00.524Z,61.50
2023-04-16T12:42:33.410Z,61.40
2023-04-16T12:45:01.291Z,62.30
2023-04-16T12:47:29.256Z,60.10
2023-04-16T12:49:57.700Z,60.80
2023-04-16T12:52:25.749Z,60.40
2023-04-16T12:54:55.214Z,61.40
2023-04-16T12:57:28.365Z,60.50
2023-04-16T12:59:57.213Z,61.50
2023-04-16T13:02:26.032Z,61.30
2023-04-16T13:04:54.761Z,61.80
2023-04-16T13:07:24.054Z,61.50
2023-04-16T13:09:51.990Z,61.90
2023-04-16T13:12:21.260Z,61.90
2023-04-16T13:14:49.092Z,62.40
2023-04-16T13:17:16.919Z,61.60
2023-04-16T13:19:45.631Z,60.70
2023-04-16T13:22:14.020Z,60.20
2023-04-16T13:24:41.890Z,61.80
2023-04-16T13:27:11.363Z,60.60
2023-04-16T13:29:40.723Z,59.20
2023-04-16T13:32:08.612Z,60.90
2023-04-16T13:34:36.496Z,61.00
2023-04-16T13:37:04.522Z,61.20
2023-04-16T13:39:32.582Z,60.00
2023-04-16T13:42:00.654Z,59.90
2023-04-16T13:44:28.640Z,59.00
2023-04-16T13:46:58.213Z,59.90
2023-04-16T13:49:26.255Z,59.10
2023-04-16T13:51:54.162Z,59.20
2023-04-16T13:54:21.995Z,59.00
2023-04-16T13:56:51.112Z,59.10
2023-04-16T13:59:20.092Z,59.80
2023-04-16T14:01:48.082Z,58.20
2023-04-16T14:04:17.540Z,58.90
2023-04-16T14:06:45.432Z,58.20
2023-04-16T14:09:13.406Z,60.00
2023-04-16T14:11:41.436Z,58.80
2023-04-16T14:14:09.342Z,57.70
2023-04-16T14:16:37.249Z,58.70
2023-04-16T14:19:05.201Z,58.90
2023-04-16T14:21:34.481Z,61.00
2023-04-16T14:24:02.278Z,59.60
2023-04-16T14:26:33.340Z,61.00
2023-04-16T14:31:29.155Z,57.70
2023-04-16T14:33:57.056Z,58.00
2023-04-16T14:36:24.937Z,56.10
2023-04-16T14:38:54.245Z,57.90
2023-04-16T14:41:22.170Z,57.00
2023-04-16T14:43:50.041Z,57.40
2023-04-16T14:46:18.093Z,57.10
2023-04-16T14:48:46.385Z,57.10
2023-04-16T14:51:14.317Z,57.40
2023-04-16T14:53:42.245Z,56.50
2023-04-16T14:56:12.842Z,57.10
2023-04-16T14:58:42.789Z,56.40
2023-04-16T15:01:10.833Z,55.90
2023-04-16T15:03:38.936Z,55.60
2023-04-16T15:06:07.084Z,55.50
2023-04-16T15:08:35.730Z,55.60
2023-04-16T15:11:03.685Z,54.70
2023-04-16T15:13:34.543Z,56.00
2023-04-16T15:16:02.573Z,57.30
2023-04-16T15:18:31.004Z,55.80
2023-04-16T15:20:58.974Z,58.10
2023-04-16T15:23:26.898Z,58.20
2023-04-16T15:25:57.946Z,57.00
2023-04-16T15:28:25.982Z,57.70
2023-04-16T15:30:55.693Z,56.90
2023-04-16T15:33:26.442Z,58.20
2023-04-16T15:35:54.602Z,58.90
2023-04-16T15:38:22.875Z,57.30
2023-04-16T15:40:53.929Z,57.60
2023-04-16T15:43:22.510Z,57.10
2023-04-16T15:45:51.121Z,57.20
2023-04-16T15:48:21.624Z,58.70
2023-04-16T15:50:49.813Z,59.20
2023-04-16T15:53:18.085Z,59.30
2023-04-16T15:55:46.464Z,60.20
2023-04-16T15:58:14.376Z,61.00
2023-04-16T16:00:43.038Z,61.40
2023-04-16T16:03:11.102Z,61.30
2023-04-16T16:05:41.019Z,60.70
2023-04-16T16:08:09.964Z,61.70
2023-04-16T16:10:37.839Z,61.70
2023-04-16T16:13:07.886Z,62.20
2023-04-16T16:15:35.971Z,62.20
2023-04-16T16:18:03.922Z,60.40
2023-04-16T16:20:31.873Z,61.60
2023-04-16T16:23:01.277Z,61.00
2023-04-16T16:25:30.257Z,59.90
2023-04-16T16:27:58.789Z,61.70
2023-04-16T16:30:27.151Z,61.60
2023-04-16T16:32:55.397Z,62.30
2023-04-16T16:45:59.604Z,62.70
2023-04-16T16:48:27.522Z,61.30
2023-04-16T16:50:55.576Z,62.50
2023-04-16T16:53:23.523Z,64.40
2023-04-16T16:55:51.484Z,64.30
2023-04-16T16:58:19.360Z,64.90
2023-04-16T17:00:47.253Z,64.50
2023-04-16T17:03:17.096Z,65.50
2023-04-16T17:05:45.237Z,65.20
2023-04-16T17:08:13.830Z,65.20
2023-04-16T17:10:43.461Z,66.60
2023-04-16T17:13:11.389Z,64.80
2023-04-16T17:15:39.712Z,65.60
2023-04-16T17:18:07.849Z,66.30
2023-04-16T17:20:37.886Z,66.20
2023-04-16T17:23:06.065Z,67.10
2023-04-16T17:25:34.161Z,66.50
2023-04-16T17:28:02.158Z,67.20
2023-04-16T17:30:31.873Z,68.90
2023-04-16T17:35:35.270Z,68.30
2023-04-16T17:38:04.477Z,68.00
2023-04-16T17:40:32.362Z,69.00
2023-04-16T17:43:00.236Z,69.50
2023-04-16T17:45:28.143Z,69.40
2023-04-16T17:47:56.037Z,69.50
2023-04-16T17:50:24.195Z,70.00
2023-04-16T17:52:52.060Z,69.40
2023-04-16T17:55:21.462Z,69.20
2023-04-16T17:57:49.759Z,70.10
2023-04-16T18:00:18.518Z,69.60
2023-04-16T18:02:46.503Z,70.40
2023-04-16T18:05:14.590Z,70.90
2023-04-16T18:07:43.663Z,69.70
2023-04-16T18:10:11.808Z,71.00
2023-04-16T18:12:41.179Z,71.20
2023-04-16T18:15:10.300Z,72.80
2023-04-16T18:17:38.270Z,72.90
2023-04-16T18:20:08.919Z,72.60
2023-04-16T18:22:36.850Z,73.00
2023-04-16T18:25:05.260Z,73.60
2023-04-16T18:27:33.324Z,74.10
2023-04-16T18:30:04.382Z,74.40
2023-04-16T18:32:33.286Z,74.80
2023-04-16T18:35:01.793Z,74.60
2023-04-16T18:37:29.706Z,74.90
2023-04-16T18:39:58.203Z,75.20
2023-04-16T18:42:27.941Z,74.80
2023-04-16T18:44:56.169Z,75.00
2023-04-16T18:47:25.938Z,75.20
2023-04-16T18:49:53.856Z,74.80
2023-04-16T18:52:21.792Z,74.80
2023-04-16T18:54:49.739Z,74.90
2023-04-16T18:57:17.590Z,75.50
2023-04-16T18:59:45.505Z,74.40
2023-04-16T19:02:13.632Z,75.00
2023-04-16T19:04:43.161Z,76.00
2023-04-16T19:07:11.333Z,76.60
2023-04-16T19:09:39.267Z,76.80
2023-04-16T19:12:07.632Z,76.60
2023-04-16T19:14:35.537Z,76.80
2023-04-16T19:17:03.434Z,77.00
2023-04-16T19:19:31.526Z,77.20
2023-04-16T19:22:00.783Z,76.70
2023-04-16T19:24:28.639Z,77.40
2023-04-16T19:26:57.166Z,77.50
2023-04-16T19:29:25.174Z,77.30
2023-04-16T19:31:53.103Z,77.70
2023-04-16T19:34:20.976Z,78.00
2023-04-16T19:36:48.878Z,78.00
2023-04-16T19:39:18.133Z,77.90
2023-04-16T19:41:45.983Z,78.60
2023-04-16T19:44:13.811Z,78.60
2023-04-16T19:46:41.675Z,78.70
2023-04-16T19:49:09.856Z,78.60
2023-04-16T19:51:38.029Z,78.70
2023-04-16T19:54:06.070Z,78.80
2023-04-16T19:56:35.765Z,79.10
2023-04-16T19:59:03.651Z,79.10
2023-04-16T20:01:31.748Z,79.40
2023-04-16T20:03:59.689Z,79.40
2023-04-16T20:06:27.780Z,79.90
2023-04-16T20:08:56.588Z,79.70
2023-04-16T20:11:24.480Z,80.00
2023-04-16T20:13:54.289Z,80.30
2023-04-16T20:16:23.798Z,80.60
2023-04-16T20:18:54.253Z,80.70
2023-04-16T20:21:22.370Z,81.00
2023-04-16T20:23:50.256Z,80.80
2023-04-16T20:26:18.504Z,81.20
2023-04-16T20:28:46.693Z,81.10
2023-04-16T20:31:16.205Z,81.50
2023-04-16T20:33:44.040Z,81.80
2023-04-16T20:36:11.942Z,82.10
2023-04-16T20:38:42.246Z,82.10
2023-04-16T20:41:12.294Z,82.20
2023-04-16T20:43:42.062Z,82.40
2023-04-16T20:46:10.651Z,82.40
2023-04-16T20:48:40.035Z,82.40
2023-04-16T20:51:09.392Z,82.50
2023-04-16T20:53:38.040Z,82.60
2023-04-16T20:56:06.607Z,82.50
2023-04-16T20:58:34.512Z,82.60
2023-04-16T21:01:02.525Z,82.70
2023-04-16T21:03:30.560Z,82.80
2023-04-16T21:06:01.648Z,82.90
2023-04-16T21:08:29.570Z,83.00
2023-04-16T21:10:57.456Z,82.70
2023-04-16T21:13:25.510Z,83.10
2023-04-16T21:15:53.944Z,83.20
2023-04-16T21:18:21.918Z,83.10
2023-04-16T21:20:49.828Z,83.10
2023-04-16T21:23:19.107Z,83.20
2023-04-16T21:25:46.973Z,83.20
2023-04-16T21:28:14.808Z,83.40
2023-04-16T21:30:43.201Z,83.50
2023-04-16T21:33:12.736Z,83.50
2023-04-16T21:35:40.705Z,83.40
2023-04-16T21:38:08.622Z,83.60
2023-04-16T21:40:37.930Z,83.80
2023-04-16T21:43:06.391Z,83.80
2023-04-16T21:45:34.272Z,84.00
2023-04-16T21:48:02.271Z,84.00
2023-04-16T21:50:30.215Z,84.20
2023-04-16T21:52:58.124Z,84.30
2023-04-16T21:55:26.069Z,84.40
2023-04-16T21:57:55.331Z,84.40
2023-04-16T22:00:23.230Z,84.60
2023-04-16T22:02:51.520Z,84.60
2023-04-16T22:05:19.963Z,84.70
2023-04-16T22:07:47.884Z,84.80
2023-04-16T22:10:16.059Z,85.00
2023-04-16T22:12:44.740Z,85.10
2023-04-16T22:15:15.207Z,85.10
2023-04-16T22:17:43.121Z,85.00
2023-04-16T22:20:12.718Z,85.20
2023-04-16T22:22:40.918Z,85.30
2023-04-16T22:25:09.907Z,85.10
2023-04-16T22:27:38.028Z,85.40
2023-04-16T22:30:07.180Z,85.60
2023-04-16T22:32:36.543Z,85.20
2023-04-16T22:35:04.798Z,85.30
2023-04-16T22:37:33.437Z,85.20
2023-04-16T22:40:01.554Z,85.40
2023-04-16T22:42:29.484Z,85.40
2023-04-16T22:44:57.572Z,85.30
2023-04-16T22:47:25.640Z,85.40
2023-04-16T22:49:55.380Z,85.40
2023-04-16T22:52:23.327Z,85.40
2023-04-16T22:54:51.270Z,85.40
2023-04-16T22:57:21.106Z,85.50
2023-04-16T22:59:49.101Z,85.50
2023-04-16T23:02:17.476Z,85.60
2023-04-16T23:04:45.565Z,85.50
2023-04-16T23:07:15.610Z,85.80
2023-04-16T23:09:43.559Z,85.70
2023-04-16T23:17:28.218Z,85.80
2023-04-16T23:19:56.253Z,85.70
2023-04-16T23:22:25.562Z,85.60
2023-04-16T23:24:53.682Z,85.70
2023-04-16T23:27:21.564Z,85.60
2023-04-16T23:29:49.564Z,85.70
2023-04-16T23:32:17.588Z,85.90
2023-04-16T23:34:45.610Z,85.90
2023-04-16T23:37:13.678Z,85.70
2023-04-16T23:39:43.058Z,85.90
2023-04-16T23:42:11.143Z,85.80
2023-04-16T23:44:39.151Z,85.90
2023-04-16T23:47:07.089Z,85.80
2023-04-16T23:49:34.992Z,85.90
2023-04-16T23:52:02.899Z,86.10
2023-04-16T23:54:30.787Z,86.30
2023-04-16T23:57:00.100Z,86.10
2023-04-16T23:59:28.102Z,86.10
